createdAt,value
2018-09-15T00:01:27.335Z,11.13
2018-09-15T00:05:29.529Z,11.63
2018-09-15T00:09:31.723Z,11.30
2018-09-15T00:13:33.996Z,12.20
2018-09-15T00:17:36.238Z,12.03
2018-09-15T00:21:38.507Z,12.80
2018-09-15T00:25:41.388Z,12.47
2018-09-15T00:29:43.514Z,13.47
2018-09-15T00:33:45.696Z,13.20
2018-09-15T00:37:47.862Z,11.67
2018-09-15T00:41:50.392Z,12.23
2018-09-15T00:45:52.950Z,12.30
2018-09-15T00:49:55.091Z,10.87
2018-09-15T00:53:57.251Z,12.10
2018-09-15T00:57:59.440Z,12.27
2018-09-15T01:02:01.580Z,10.67
2018-09-15T01:06:03.735Z,13.40
2018-09-15T01:10:06.552Z,12.50
2018-09-15T01:14:08.760Z,10.23
2018-09-15T01:18:10.960Z,8.07
2018-09-15T01:22:13.128Z,8.40
2018-09-15T01:26:15.507Z,9.43
2018-09-15T01:30:17.738Z,9.10
2018-09-15T01:34:20.079Z,8.70
2018-09-15T01:38:22.228Z,8.60
2018-09-15T01:42:24.906Z,11.13
2018-09-15T01:46:27.051Z,12.70
2018-09-15T01:50:29.180Z,9.33
2018-09-15T01:54:31.330Z,8.60
2018-09-15T01:58:33.459Z,9.63
2018-09-15T02:02:35.598Z,10.57
2018-09-15T02:06:38.183Z,10.00
2018-09-15T02:10:40.362Z,9.50
2018-09-15T02:14:42.488Z,10.57
2018-09-15T02:18:44.634Z,10.13
2018-09-15T02:22:46.837Z,9.80
2018-09-15T02:26:48.954Z,10.53
2018-09-15T02:30:51.122Z,10.77
2018-09-15T02:34:53.338Z,9.53
2018-09-15T02:38:55.562Z,10.07
2018-09-15T02:42:57.714Z,9.87
2018-09-15T02:46:59.895Z,11.43
2018-09-15T02:51:02.068Z,10.53
2018-09-15T02:55:04.676Z,10.10
2018-09-15T02:59:06.838Z,11.23
2018-09-15T03:03:08.987Z,11.17
2018-09-15T03:07:11.851Z,10.90
2018-09-15T03:11:13.959Z,10.37
2018-09-15T03:15:16.087Z,11.07
2018-09-15T03:19:18.350Z,10.77
2018-09-15T03:23:20.572Z,12.00
2018-09-15T03:27:22.958Z,11.77
2018-09-15T03:31:25.690Z,10.30
2018-09-15T03:35:27.906Z,10.37
2018-09-15T03:39:30.095Z,9.87
2018-09-15T03:43:32.243Z,12.10
2018-09-15T03:47:34.359Z,11.33
2018-09-15T03:51:36.552Z,10.83
2018-09-15T03:55:38.700Z,12.53
2018-09-15T03:59:40.875Z,11.77
2018-09-15T04:03:43.038Z,10.83
2018-09-15T04:07:45.185Z,10.70
2018-09-15T04:11:47.414Z,12.23
2018-09-15T04:15:49.622Z,13.17
2018-09-15T04:19:51.758Z,11.63
2018-09-15T04:23:53.918Z,13.07
2018-09-15T04:27:56.054Z,11.37
2018-09-15T04:31:58.475Z,10.33
2018-09-15T04:36:00.690Z,11.07
2018-09-15T04:40:02.942Z,11.73
2018-09-15T04:44:05.286Z,10.87
2018-09-15T04:48:07.422Z,11.27
2018-09-15T04:52:09.578Z,9.27
2018-09-15T04:56:11.761Z,9.27
2018-09-15T05:00:13.904Z,9.47
2018-09-15T05:04:16.067Z,10.10
2018-09-15T05:08:18.539Z,9.17
2018-09-15T05:12:20.789Z,9.83
2018-09-15T05:16:22.877Z,9.03
2018-09-15T05:20:25.008Z,8.50
2018-09-15T05:24:27.171Z,7.87
2018-09-15T05:28:29.339Z,9.03
2018-09-15T05:32:31.501Z,7.87
2018-09-15T05:36:33.690Z,8.97
2018-09-15T05:40:36.703Z,10.23
2018-09-15T05:44:38.891Z,8.50
2018-09-15T05:48:41.035Z,8.63
2018-09-15T05:52:43.194Z,11.90
2018-09-15T05:56:45.435Z,12.07
2018-09-15T06:00:47.660Z,12.90
2018-09-15T06:04:49.848Z,12.00
2018-09-15T06:08:52.032Z,11.27
2018-09-15T06:12:54.257Z,9.73
2018-09-15T06:16:56.402Z,10.07
2018-09-15T06:20:58.612Z,8.23
2018-09-15T06:25:00.769Z,9.50
2018-09-15T06:29:03.202Z,12.20
2018-09-15T06:33:05.471Z,7.83
2018-09-15T06:37:07.650Z,7.63
2018-09-15T06:41:10.324Z,7.43
2018-09-15T06:45:12.572Z,6.40
2018-09-15T06:49:14.746Z,5.00
2018-09-15T06:53:16.928Z,5.50
2018-09-15T06:57:19.141Z,5.27
2018-09-15T07:01:21.333Z,5.87
2018-09-15T07:05:24.075Z,6.80
2018-09-15T07:09:26.254Z,5.37
2018-09-15T07:13:28.400Z,5.63
2018-09-15T07:17:30.743Z,6.93
2018-09-15T07:21:32.900Z,6.13
2018-09-15T07:25:35.074Z,6.50
2018-09-15T07:29:37.263Z,5.57
2018-09-15T07:33:39.449Z,4.00
2018-09-15T07:37:42.547Z,4.00
2018-09-15T07:41:44.775Z,3.27
2018-09-15T07:45:47.339Z,3.33
2018-09-15T07:49:50.222Z,2.20
2018-09-15T07:53:52.364Z,2.50
2018-09-15T07:57:54.765Z,2.70
2018-09-15T08:01:56.842Z,2.77
2018-09-15T08:05:59.048Z,2.20
2018-09-15T08:10:01.243Z,2.70
2018-09-15T08:14:03.485Z,2.13
2018-09-15T08:18:05.678Z,1.90
2018-09-15T08:22:07.890Z,2.63
2018-09-15T08:26:10.114Z,1.93
2018-09-15T08:30:12.378Z,1.50
2018-09-15T08:34:14.551Z,1.57
2018-09-15T08:38:16.752Z,1.30
2018-09-15T08:42:19.015Z,1.33
2018-09-15T08:46:21.151Z,0.97
2018-09-15T08:50:23.374Z,0.97
2018-09-15T08:54:25.712Z,1.30
2018-09-15T08:58:27.876Z,1.70
2018-09-15T09:02:30.094Z,1.30
2018-09-15T09:06:32.252Z,1.03
2018-09-15T09:10:34.736Z,1.00
2018-09-15T09:14:36.926Z,1.07
2018-09-15T09:18:39.183Z,1.60
2018-09-15T09:22:41.438Z,1.37
2018-09-15T09:26:43.664Z,1.10
2018-09-15T09:30:45.806Z,1.20
2018-09-15T09:34:48.017Z,1.13
2018-09-15T09:38:50.234Z,1.27
2018-09-15T09:42:52.760Z,1.40
2018-09-15T09:46:54.966Z,1.17
2018-09-15T09:50:57.147Z,1.50
2018-09-15T09:54:59.348Z,1.13
2018-09-15T09:59:01.644Z,0.93
2018-09-15T10:03:03.838Z,1.30
2018-09-15T10:07:06.108Z,1.30
2018-09-15T10:11:08.454Z,1.50
2018-09-15T10:15:10.648Z,1.30
2018-09-15T10:19:12.878Z,0.90
2018-09-15T10:23:15.047Z,0.80
2018-09-15T10:27:17.214Z,1.07
2018-09-15T10:31:19.554Z,1.10
2018-09-15T11:28:57.455Z,1.17
2018-09-15T11:32:59.587Z,1.20
2018-09-15T11:37:01.784Z,1.13
2018-09-15T11:41:04.178Z,1.33
2018-09-15T11:45:06.420Z,1.10
2018-09-15T11:49:09.229Z,1.30
2018-09-15T11:53:11.443Z,0.77
2018-09-15T11:57:14.139Z,0.73
2018-09-15T12:01:16.364Z,0.93
2018-09-15T12:05:19.606Z,1.13
2018-09-15T12:09:21.891Z,0.97
2018-09-15T12:13:24.052Z,1.10
2018-09-15T12:17:26.219Z,1.83
2018-09-15T12:21:28.410Z,1.87
2018-09-15T12:25:30.598Z,1.60
2018-09-15T12:29:32.807Z,1.03
2018-09-15T12:33:35.433Z,1.57
2018-09-15T12:37:37.606Z,1.10
2018-09-15T12:41:42.039Z,1.40
2018-09-15T12:45:44.360Z,0.90
2018-09-15T12:49:46.646Z,0.97
2018-09-15T12:53:48.896Z,1.33
2018-09-15T12:57:51.289Z,0.90
2018-09-15T13:01:53.621Z,1.10
2018-09-15T13:05:55.802Z,1.10
2018-09-15T13:09:58.037Z,1.00
2018-09-15T13:14:00.279Z,0.90
2018-09-15T13:18:02.534Z,1.10
2018-09-15T13:22:05.220Z,1.83
2018-09-15T13:26:07.469Z,1.10
2018-09-15T13:30:09.908Z,0.73
2018-09-15T13:34:12.093Z,1.50
2018-09-15T13:38:15.661Z,0.90
2018-09-15T13:42:17.940Z,1.03
2018-09-15T13:46:20.213Z,1.40
2018-09-15T13:50:22.397Z,1.13
2018-09-15T13:54:24.576Z,1.07
2018-09-15T13:58:26.763Z,0.83
2018-09-15T14:02:28.940Z,1.23
2018-09-15T14:06:31.110Z,1.00
2018-09-15T14:10:33.354Z,0.80
2018-09-15T14:14:35.559Z,1.00
2018-09-15T14:18:37.744Z,1.30
2018-09-15T14:22:39.947Z,1.13
2018-09-15T14:26:42.107Z,1.07
2018-09-15T14:30:44.556Z,1.07
2018-09-15T14:34:46.915Z,1.10
2018-09-15T14:38:49.248Z,0.83
2018-09-15T14:42:51.497Z,0.80
2018-09-15T14:46:53.857Z,1.07
2018-09-15T14:50:56.081Z,1.00
2018-09-15T14:54:58.270Z,1.23
2018-09-15T14:59:00.487Z,1.00
2018-09-15T15:03:04.933Z,0.90
2018-09-15T15:07:07.156Z,0.97
2018-09-15T15:11:09.311Z,0.97
2018-09-15T15:15:11.495Z,1.03
2018-09-15T15:19:13.884Z,1.20
2018-09-15T15:23:16.137Z,1.40
2018-09-15T15:27:18.319Z,1.40
2018-09-15T15:31:20.511Z,1.70
2018-09-15T15:35:22.841Z,1.40
2018-09-15T15:39:25.658Z,1.20
2018-09-15T15:43:27.918Z,1.73
2018-09-15T15:47:30.107Z,1.00
2018-09-15T15:51:32.694Z,3.10
2018-09-15T15:55:37.194Z,1.63
2018-09-15T15:59:39.413Z,1.40
2018-09-15T16:03:41.665Z,1.90
2018-09-15T16:07:43.918Z,2.20
2018-09-15T16:11:47.151Z,1.77
2018-09-15T16:15:50.272Z,1.20
2018-09-15T16:19:52.518Z,1.70
2018-09-15T16:23:54.736Z,2.60
2018-09-15T16:27:57.132Z,1.60
2018-09-15T16:31:59.333Z,1.80
2018-09-15T16:36:01.966Z,1.40
2018-09-15T16:40:04.247Z,1.53
2018-09-15T16:44:06.743Z,1.80
2018-09-15T16:48:08.948Z,1.20
2018-09-15T16:52:11.238Z,1.63
2018-09-15T16:56:13.453Z,1.83
2018-09-15T17:00:15.677Z,2.00
2018-09-15T17:04:17.955Z,1.67
2018-09-15T17:08:20.189Z,1.60
2018-09-15T17:12:22.386Z,1.73
2018-09-15T17:16:24.624Z,1.53
2018-09-15T17:20:26.834Z,2.13
2018-09-15T17:24:29.081Z,1.97
2018-09-15T17:28:31.375Z,1.80
2018-09-15T17:32:33.627Z,2.13
2018-09-15T17:36:35.870Z,1.50
2018-09-15T17:40:38.108Z,1.77
2018-09-15T17:44:40.446Z,1.67
2018-09-15T17:48:42.686Z,2.80
2018-09-15T17:52:44.973Z,2.20
2018-09-15T17:56:47.167Z,2.00
2018-09-15T18:00:49.788Z,2.27
2018-09-15T18:04:52.098Z,2.63
2018-09-15T18:08:54.301Z,2.07
2018-09-15T18:12:56.546Z,3.87
2018-09-15T18:16:58.802Z,3.37
2018-09-15T18:21:01.125Z,2.60
2018-09-15T18:25:03.503Z,2.57
2018-09-15T18:29:05.756Z,3.57
2018-09-15T18:33:07.971Z,4.17
2018-09-15T18:37:10.221Z,4.33
2018-09-15T18:41:12.523Z,3.90
2018-09-15T18:45:14.721Z,3.20
2018-09-15T18:49:17.189Z,3.43
2018-09-15T18:53:19.535Z,3.53
2018-09-15T18:57:21.783Z,3.23
2018-09-15T19:01:24.513Z,3.50
2018-09-15T19:05:29.579Z,3.40
2018-09-15T19:09:31.936Z,3.53
2018-09-15T19:13:34.091Z,3.40
2018-09-15T19:17:38.351Z,3.03
2018-09-15T19:21:40.551Z,3.43
2018-09-15T19:25:43.416Z,3.40
2018-09-15T19:29:45.831Z,3.83
2018-09-15T19:33:48.762Z,3.67
2018-09-15T19:37:51.916Z,3.43
2018-09-15T19:41:54.255Z,4.20
2018-09-15T19:45:56.547Z,4.77
2018-09-15T19:49:58.748Z,4.10
2018-09-15T19:54:01.184Z,4.00
2018-09-15T19:58:03.459Z,4.70
2018-09-15T20:02:05.905Z,3.80
2018-09-15T20:06:08.431Z,4.40
2018-09-15T20:10:10.589Z,4.47
2018-09-15T20:14:12.792Z,5.17
2018-09-15T20:18:15.359Z,4.70
2018-09-15T20:22:17.760Z,3.90
2018-09-15T20:26:20.440Z,4.13
2018-09-15T20:30:24.775Z,3.47
2018-09-15T20:34:27.630Z,3.07
2018-09-15T20:38:29.925Z,4.53
2018-09-15T20:42:32.222Z,4.00
2018-09-15T20:46:34.443Z,4.00
2018-09-15T20:50:37.305Z,4.07
2018-09-15T20:54:39.860Z,3.30
2018-09-15T20:58:42.202Z,3.80
2018-09-15T21:02:44.627Z,5.20
2018-09-15T21:06:46.887Z,4.27
2018-09-15T21:10:49.315Z,3.80
2018-09-15T21:14:51.622Z,3.87
2018-09-15T21:18:53.987Z,4.13
2018-09-15T21:22:56.191Z,5.43
2018-09-15T21:26:58.492Z,4.90
2018-09-15T21:31:00.656Z,4.37
2018-09-15T21:35:03.067Z,4.80
2018-09-15T21:39:08.166Z,4.47
2018-09-15T21:43:10.731Z,5.23
2018-09-15T21:47:13.280Z,5.80
2018-09-15T21:51:15.588Z,5.53
2018-09-15T21:55:17.810Z,4.67
2018-09-15T21:59:20.110Z,5.07
2018-09-15T22:03:22.819Z,5.77
2018-09-15T22:07:25.159Z,4.67
2018-09-15T22:11:29.795Z,4.13
2018-09-15T22:15:32.135Z,5.13
2018-09-15T22:19:34.471Z,5.90
2018-09-15T22:23:36.719Z,6.00
2018-09-15T22:27:48.928Z,4.80
2018-09-15T22:31:51.320Z,4.57
2018-09-15T22:35:53.594Z,5.67
2018-09-15T22:39:55.994Z,6.13
2018-09-15T22:43:58.227Z,5.57
2018-09-15T22:48:00.431Z,7.93
2018-09-15T22:52:02.647Z,6.10
2018-09-15T22:56:05.033Z,5.60
2018-09-15T23:00:09.339Z,6.17
2018-09-15T23:04:13.640Z,6.27
2018-09-15T23:08:15.871Z,6.33
2018-09-15T23:12:17.972Z,5.30
2018-09-15T23:16:20.508Z,5.80
2018-09-15T23:20:22.762Z,5.27
2018-09-15T23:24:24.951Z,4.80
2018-09-15T23:28:27.092Z,4.90
2018-09-15T23:32:29.307Z,5.30
2018-09-15T23:36:31.477Z,7.33
2018-09-15T23:40:33.646Z,5.50
2018-09-15T23:44:35.945Z,6.60
2018-09-15T23:48:38.123Z,5.77
2018-09-15T23:52:40.383Z,6.33
2018-09-15T23:56:42.583Z,6.27
